createdAt,value
2022-12-05T00:01:23.012Z,11.13
2022-12-05T00:03:52.127Z,10.45
2022-12-05T00:06:20.064Z,11.07
2022-12-05T00:08:47.492Z,10.88
2022-12-05T00:11:19.965Z,9.57
2022-12-05T00:13:48.000Z,10.55
2022-12-05T00:16:18.410Z,9.57
2022-12-05T00:18:45.859Z,9.27
2022-12-05T00:21:16.749Z,10.68
2022-12-05T00:23:43.696Z,11.05
2022-12-05T00:26:10.902Z,11.57
2022-12-05T00:28:38.703Z,11.15
2022-12-05T00:31:08.777Z,11.15
2022-12-05T00:33:35.879Z,9.75
2022-12-05T00:36:12.199Z,9.35
2022-12-05T00:38:39.176Z,10.48
2022-12-05T00:41:09.035Z,7.68
2022-12-05T00:43:36.843Z,9.77
2022-12-05T00:46:08.777Z,8.23
2022-12-05T00:48:36.331Z,10.77
2022-12-05T00:51:13.227Z,8.65
2022-12-05T00:53:40.770Z,10.10
2022-12-05T00:56:13.159Z,9.52
2022-12-05T00:58:40.762Z,11.20
2022-12-05T01:01:12.606Z,11.75
2022-12-05T01:03:40.354Z,10.23
2022-12-05T01:06:07.916Z,11.27
2022-12-05T01:08:35.779Z,10.35
2022-12-05T01:11:04.729Z,11.25
2022-12-05T01:13:32.395Z,11.13
2022-12-05T01:15:59.700Z,10.80
2022-12-05T01:18:28.147Z,12.10
2022-12-05T01:20:55.435Z,9.85
2022-12-05T01:23:22.719Z,8.23
2022-12-05T01:25:51.735Z,10.07
2022-12-05T01:28:19.062Z,10.02
2022-12-05T01:30:48.187Z,9.52
2022-12-05T01:33:15.624Z,8.85
2022-12-05T01:35:42.879Z,9.45
2022-12-05T01:38:12.517Z,9.38
2022-12-05T01:40:40.380Z,10.07
2022-12-05T01:43:15.836Z,9.43
2022-12-05T01:45:45.897Z,9.32
2022-12-05T01:48:20.888Z,8.65
2022-12-05T01:50:50.099Z,9.43
2022-12-05T01:53:17.880Z,8.60
2022-12-05T01:55:46.258Z,9.98
2022-12-05T01:58:13.480Z,9.18
2022-12-05T02:00:40.466Z,9.25
2022-12-05T02:03:10.845Z,7.72
2022-12-05T02:05:41.295Z,9.13
2022-12-05T02:08:10.307Z,7.93
2022-12-05T02:10:50.178Z,10.10
2022-12-05T02:13:27.031Z,9.50
2022-12-05T02:16:15.414Z,10.75
2022-12-05T02:18:57.543Z,8.68
2022-12-05T02:21:41.551Z,8.32
2022-12-05T02:24:29.415Z,9.85
2022-12-05T02:27:00.788Z,9.40
2022-12-05T02:29:41.320Z,9.77
2022-12-05T02:32:26.697Z,9.35
2022-12-05T02:34:59.678Z,9.38
2022-12-05T02:37:59.787Z,9.75
2022-12-05T02:40:46.657Z,9.13
2022-12-05T02:43:25.839Z,9.13
2022-12-05T02:45:58.614Z,8.48
2022-12-05T02:48:29.083Z,9.40
2022-12-05T02:51:00.375Z,9.32
2022-12-05T02:53:29.003Z,8.90
2022-12-05T02:55:56.979Z,9.45
2022-12-05T02:58:38.725Z,8.95
2022-12-05T03:01:05.998Z,8.95
2022-12-05T03:03:33.933Z,8.23
2022-12-05T03:06:07.059Z,7.82
2022-12-05T03:08:41.237Z,8.32
2022-12-05T03:11:08.405Z,8.45
2022-12-05T03:13:45.915Z,7.32
2022-12-05T03:16:22.147Z,8.43
2022-12-05T03:19:21.777Z,9.30
2022-12-05T03:22:16.575Z,7.00
2022-12-05T03:24:43.784Z,7.05
2022-12-05T03:27:27.852Z,8.32
2022-12-05T03:30:02.141Z,7.57
2022-12-05T03:33:02.278Z,8.13
2022-12-05T03:35:44.999Z,5.63
2022-12-05T03:38:24.679Z,6.80
2022-12-05T03:41:21.097Z,7.78
2022-12-05T03:43:58.071Z,7.40
2022-12-05T03:46:32.439Z,8.13
2022-12-05T03:49:07.609Z,6.75
2022-12-05T03:51:47.481Z,7.75
2022-12-05T03:54:37.724Z,7.28
2022-12-05T03:57:15.335Z,7.15
2022-12-05T03:59:55.268Z,6.78
2022-12-05T04:02:34.729Z,5.97
2022-12-05T04:05:08.570Z,6.47
2022-12-05T04:07:39.175Z,6.20
2022-12-05T04:10:12.707Z,7.28
2022-12-05T04:12:41.827Z,6.28
2022-12-05T04:15:14.549Z,7.25
2022-12-05T04:17:56.931Z,7.85
2022-12-05T04:20:45.959Z,7.43
2022-12-05T04:23:13.117Z,6.55
2022-12-05T04:26:06.893Z,7.40
2022-12-05T04:29:10.423Z,7.90
2022-12-05T04:31:44.147Z,7.35
2022-12-05T04:34:15.099Z,8.00
2022-12-05T04:37:00.640Z,6.82
2022-12-05T04:39:36.994Z,6.97
2022-12-05T04:42:10.785Z,7.95
2022-12-05T04:44:44.301Z,7.95
2022-12-05T04:47:15.531Z,7.93
2022-12-05T04:49:48.049Z,9.40
2022-12-05T04:52:19.449Z,7.20
2022-12-05T04:54:49.118Z,6.65
2022-12-05T04:57:19.184Z,6.82
2022-12-05T04:59:46.871Z,8.32
2022-12-05T05:02:18.850Z,6.78
2022-12-05T05:04:52.646Z,6.40
2022-12-05T05:07:20.551Z,7.60
2022-12-05T05:09:47.487Z,7.05
2022-12-05T05:12:18.902Z,7.30
2022-12-05T05:14:46.387Z,6.25
2022-12-05T05:17:13.311Z,7.18
2022-12-05T05:19:40.261Z,7.07
2022-12-05T05:22:07.185Z,8.02
2022-12-05T05:24:34.068Z,8.18
2022-12-05T05:27:00.999Z,9.77
2022-12-05T05:29:27.922Z,8.40
2022-12-05T05:31:54.924Z,7.88
2022-12-05T05:34:21.810Z,7.18
2022-12-05T05:36:52.982Z,7.25
2022-12-05T05:39:20.227Z,6.18
2022-12-05T05:44:26.128Z,7.13
2022-12-05T05:46:53.250Z,8.10
2022-12-05T05:49:20.222Z,7.35
2022-12-05T05:51:47.138Z,7.15
2022-12-05T05:54:14.048Z,7.10
2022-12-05T05:56:40.969Z,7.07
2022-12-05T05:59:07.871Z,6.63
2022-12-05T06:01:34.760Z,7.40
2022-12-05T06:04:01.840Z,9.52
2022-12-05T06:06:28.877Z,7.85
2022-12-05T06:08:56.072Z,7.65
2022-12-05T06:11:26.749Z,6.88
2022-12-05T06:13:58.689Z,6.82
2022-12-05T06:16:25.735Z,6.22
2022-12-05T06:18:53.543Z,7.88
2022-12-05T06:21:21.993Z,8.93
2022-12-05T06:23:50.258Z,6.78
2022-12-05T06:26:20.127Z,8.63
2022-12-05T06:28:47.442Z,6.90
2022-12-05T06:31:20.007Z,7.47
2022-12-05T06:33:47.708Z,6.85
2022-12-05T06:36:17.716Z,6.30
2022-12-05T06:38:44.976Z,8.48
2022-12-05T06:41:15.233Z,7.88
2022-12-05T06:43:42.788Z,7.55
2022-12-05T06:46:11.961Z,7.05
2022-12-05T06:48:39.773Z,7.43
2022-12-05T06:51:10.642Z,7.43
2022-12-05T06:53:37.897Z,6.93
2022-12-05T06:56:08.220Z,7.80
2022-12-05T06:58:35.194Z,9.07
2022-12-05T07:01:20.503Z,7.88
2022-12-05T07:03:49.561Z,8.27
2022-12-05T07:06:17.360Z,6.93
2022-12-05T07:08:45.022Z,6.78
2022-12-05T07:11:12.299Z,6.82
2022-12-05T07:13:39.421Z,7.28
2022-12-05T07:16:07.459Z,9.68
2022-12-05T07:18:35.565Z,8.00
2022-12-05T07:21:12.506Z,7.47
2022-12-05T07:23:41.775Z,7.85
2022-12-05T07:26:10.522Z,7.43
2022-12-05T07:28:37.426Z,6.70
2022-12-05T07:31:06.812Z,7.95
2022-12-05T07:33:34.041Z,7.80
2022-12-05T07:36:08.267Z,7.15
2022-12-05T07:38:35.347Z,9.20
2022-12-05T07:41:13.522Z,8.75
2022-12-05T07:43:41.792Z,7.57
2022-12-05T07:46:11.544Z,7.32
2022-12-05T07:48:39.530Z,7.28
2022-12-05T07:51:07.931Z,7.35
2022-12-05T07:53:35.242Z,8.07
2022-12-05T07:56:04.885Z,7.53
2022-12-05T07:58:33.293Z,9.15
2022-12-05T08:01:17.981Z,8.23
2022-12-05T08:03:45.504Z,8.07
2022-12-05T10:07:58.980Z,7.22
2022-12-05T10:10:57.499Z,5.68
2022-12-05T10:13:53.755Z,8.35
2022-12-05T10:16:49.143Z,8.15
2022-12-05T10:19:42.136Z,8.48
2022-12-05T10:25:06.876Z,7.97
2022-12-05T10:27:40.252Z,8.35
2022-12-05T10:30:18.900Z,8.23
2022-12-05T10:32:59.448Z,8.27
2022-12-05T10:35:33.089Z,8.27
2022-12-05T10:38:28.529Z,6.38
2022-12-05T10:41:00.771Z,8.82
2022-12-05T10:43:30.245Z,7.22
2022-12-05T10:45:58.059Z,6.90
2022-12-05T10:48:25.723Z,8.65
2022-12-05T10:50:57.864Z,9.13
2022-12-05T10:53:41.934Z,8.30
2022-12-05T10:56:36.910Z,9.85
2022-12-05T10:59:04.411Z,9.85
2022-12-05T11:01:31.935Z,9.02
2022-12-05T11:04:01.623Z,9.38
2022-12-05T11:06:32.524Z,9.07
2022-12-05T11:09:09.908Z,9.30
2022-12-05T11:11:37.138Z,6.22
2022-12-05T11:14:21.566Z,8.27
2022-12-05T11:16:57.639Z,7.75
2022-12-05T11:19:27.597Z,5.80
2022-12-05T11:21:55.202Z,7.93
2022-12-05T11:24:29.558Z,7.85
2022-12-05T11:27:21.771Z,8.82
2022-12-05T11:30:24.133Z,8.27
2022-12-05T11:32:51.658Z,5.10
2022-12-05T11:35:26.309Z,4.47
2022-12-05T11:37:53.270Z,5.72
2022-12-05T11:40:43.019Z,6.50
2022-12-05T11:43:28.462Z,6.90
2022-12-05T11:46:04.367Z,8.48
2022-12-05T11:48:49.759Z,7.78
2022-12-05T11:51:31.395Z,7.75
2022-12-05T11:54:13.713Z,5.95
2022-12-05T11:57:13.906Z,8.30
2022-12-05T12:00:14.146Z,6.90
2022-12-05T12:03:04.165Z,4.75
2022-12-05T12:05:44.930Z,8.57
2022-12-05T12:11:16.695Z,3.67
2022-12-05T12:13:58.753Z,6.10
2022-12-05T12:16:41.060Z,7.70
2022-12-05T12:19:38.448Z,8.10
2022-12-05T12:22:34.546Z,6.93
2022-12-05T12:25:33.815Z,8.38
2022-12-05T12:28:05.585Z,7.93
2022-12-05T12:31:00.810Z,8.57
2022-12-05T12:33:52.335Z,7.40
2022-12-05T12:36:25.417Z,8.32
2022-12-05T12:39:22.656Z,8.07
2022-12-05T12:42:21.881Z,5.82
2022-12-05T12:45:09.255Z,7.30
2022-12-05T12:47:40.230Z,6.65
2022-12-05T12:50:22.199Z,7.55
2022-12-05T12:52:55.066Z,6.93
2022-12-05T12:55:35.195Z,8.00
2022-12-05T12:58:28.183Z,5.95
2022-12-05T13:01:21.661Z,7.05
2022-12-05T13:04:02.896Z,7.38
2022-12-05T13:06:43.115Z,7.75
2022-12-05T13:09:22.552Z,7.35
2022-12-05T13:11:52.290Z,6.57
2022-12-05T13:14:24.438Z,5.97
2022-12-05T13:16:54.557Z,7.05
2022-12-05T13:19:38.052Z,6.22
2022-12-05T13:22:07.300Z,9.05
2022-12-05T13:24:34.894Z,7.82
2022-12-05T13:27:06.637Z,7.25
2022-12-05T13:29:37.915Z,8.63
2022-12-05T13:32:06.096Z,8.75
2022-12-05T13:34:36.165Z,8.27
2022-12-05T13:37:31.276Z,8.13
2022-12-05T13:40:22.845Z,7.43
2022-12-05T13:43:00.858Z,8.00
2022-12-05T13:45:28.509Z,7.20
2022-12-05T13:48:01.768Z,7.15
2022-12-05T13:50:41.442Z,7.47
2022-12-05T13:53:26.161Z,7.90
2022-12-05T13:56:16.062Z,9.30
2022-12-05T13:58:59.222Z,8.47
2022-12-05T14:01:26.350Z,7.65
2022-12-05T14:03:59.996Z,6.93
2022-12-05T14:06:38.856Z,6.95
2022-12-05T14:09:17.747Z,7.63
2022-12-05T14:12:22.976Z,10.88
2022-12-05T14:15:03.871Z,7.55
2022-12-05T14:17:43.247Z,9.15
2022-12-05T14:20:22.497Z,7.43
2022-12-05T14:23:22.514Z,6.90
2022-12-05T14:26:15.110Z,4.73
2022-12-05T14:28:54.029Z,5.90
2022-12-05T14:31:49.499Z,6.55
2022-12-05T14:34:31.797Z,5.60
2022-12-05T14:37:06.818Z,6.68
2022-12-05T14:39:50.389Z,5.85
2022-12-05T14:42:29.513Z,4.90
2022-12-05T14:44:59.830Z,6.65
2022-12-05T14:47:33.053Z,6.78
2022-12-05T14:50:33.622Z,6.15
2022-12-05T14:53:15.824Z,6.32
2022-12-05T14:55:49.003Z,6.45
2022-12-05T14:58:40.515Z,9.05
2022-12-05T15:01:30.205Z,7.55
2022-12-05T15:04:17.548Z,7.28
2022-12-05T15:06:56.465Z,7.43
2022-12-05T15:10:02.650Z,6.53
2022-12-05T15:12:48.872Z,4.72
2022-12-05T15:15:24.152Z,7.35
2022-12-05T15:17:57.697Z,6.93
2022-12-05T15:20:40.509Z,7.15
2022-12-05T15:23:38.048Z,8.90
2022-12-05T15:29:33.128Z,6.45
2022-12-05T15:32:03.231Z,4.50
2022-12-05T15:34:58.448Z,6.20
2022-12-05T15:37:34.839Z,6.75
2022-12-05T15:40:11.076Z,6.05
2022-12-05T15:42:52.469Z,5.60
2022-12-05T15:45:28.137Z,6.57
2022-12-05T15:47:59.583Z,5.90
2022-12-05T15:50:49.493Z,5.30
2022-12-05T15:53:38.750Z,5.87
2022-12-05T15:56:22.520Z,5.88
2022-12-05T15:58:55.344Z,5.28
2022-12-05T16:01:24.471Z,5.40
2022-12-05T16:03:57.322Z,4.38
2022-12-05T16:06:28.562Z,3.30
2022-12-05T16:08:57.156Z,4.45
2022-12-05T16:11:24.450Z,6.85
2022-12-05T16:13:57.065Z,6.25
2022-12-05T16:16:28.447Z,5.57
2022-12-05T16:18:58.702Z,4.93
2022-12-05T16:21:39.460Z,5.65
2022-12-05T16:26:38.727Z,3.88
2022-12-05T16:29:05.798Z,4.47
2022-12-05T16:31:36.137Z,4.95
2022-12-05T16:34:08.503Z,7.25
2022-12-05T16:36:36.640Z,5.60
2022-12-05T16:39:19.025Z,5.28
2022-12-05T16:41:47.054Z,5.00
2022-12-05T16:44:45.629Z,4.68
2022-12-05T16:47:24.199Z,6.05
2022-12-05T16:49:51.586Z,6.57
2022-12-05T16:52:18.817Z,4.65
2022-12-05T16:54:48.316Z,4.00
2022-12-05T16:57:16.703Z,5.18
2022-12-05T16:59:45.623Z,5.50
2022-12-05T17:04:49.988Z,4.13
2022-12-05T17:07:16.985Z,4.28
2022-12-05T17:09:43.923Z,5.82
2022-12-05T17:12:19.417Z,4.97
2022-12-05T17:14:47.265Z,5.10
2022-12-05T17:17:16.049Z,3.50
2022-12-05T17:19:43.265Z,5.03
2022-12-05T17:22:12.515Z,4.60
2022-12-05T17:24:39.400Z,6.30
2022-12-05T17:27:10.846Z,5.18
2022-12-05T17:29:38.227Z,6.07
2022-12-05T17:32:05.479Z,5.22
2022-12-05T17:34:32.420Z,5.53
2022-12-05T17:37:00.335Z,5.57
2022-12-05T17:39:28.758Z,4.95
2022-12-05T17:41:57.336Z,4.80
2022-12-05T17:44:24.544Z,5.57
2022-12-05T17:46:51.653Z,4.32
2022-12-05T17:49:18.866Z,4.70
2022-12-05T17:52:20.144Z,5.50
2022-12-05T17:54:33.409Z,5.28
2022-12-05T17:57:00.338Z,7.03
2022-12-05T17:59:27.312Z,8.02
2022-12-05T18:01:54.262Z,7.65
2022-12-05T18:04:23.458Z,4.72
2022-12-05T18:06:51.249Z,5.43
2022-12-05T18:09:18.433Z,4.88
2022-12-05T18:11:45.409Z,3.67
2022-12-05T18:14:12.456Z,7.03
2022-12-05T18:16:39.448Z,6.35
2022-12-05T18:19:08.284Z,7.00
2022-12-05T18:21:35.724Z,7.28
2022-12-05T18:24:02.647Z,6.90
2022-12-05T18:26:29.604Z,5.05
2022-12-05T18:28:57.501Z,5.35
2022-12-05T18:31:24.715Z,5.13
2022-12-05T18:33:51.774Z,5.47
2022-12-05T18:36:21.198Z,3.83
2022-12-05T18:38:53.283Z,4.50
2022-12-05T18:41:23.353Z,5.03
2022-12-05T18:43:50.799Z,5.10
2022-12-05T18:46:18.264Z,4.90
2022-12-05T18:48:47.809Z,5.57
2022-12-05T18:51:22.598Z,5.18
2022-12-05T18:53:54.351Z,5.13
2022-12-05T18:56:25.130Z,3.53
2022-12-05T18:58:57.700Z,4.85
2022-12-05T19:01:25.848Z,4.85
2022-12-05T19:03:53.027Z,3.63
2022-12-05T19:06:22.400Z,3.38
2022-12-05T19:08:49.763Z,5.50
2022-12-05T19:11:19.129Z,5.35
2022-12-05T19:13:47.598Z,5.13
2022-12-05T19:16:18.673Z,7.13
2022-12-05T20:26:14.451Z,6.28
2022-12-05T20:28:41.877Z,4.72
2022-12-05T20:31:12.914Z,3.50
2022-12-05T20:33:40.633Z,3.45
2022-12-05T20:36:19.460Z,3.85
2022-12-05T20:38:47.230Z,4.72
2022-12-05T20:41:17.399Z,5.05
2022-12-05T20:43:45.812Z,4.00
2022-12-05T20:46:15.739Z,6.55
2022-12-05T20:48:43.783Z,4.65
2022-12-05T20:51:16.232Z,5.15
2022-12-05T20:53:44.645Z,3.85
2022-12-05T20:56:17.538Z,7.35
2022-12-05T20:58:47.296Z,4.70
2022-12-05T21:01:15.727Z,5.17
2022-12-05T21:03:45.509Z,5.50
2022-12-05T21:06:18.655Z,6.00
2022-12-05T21:08:46.051Z,5.80
2022-12-05T21:11:13.943Z,6.10
2022-12-05T21:13:41.694Z,5.32
2022-12-05T21:16:11.951Z,5.72
2022-12-05T21:18:39.706Z,5.30
2022-12-05T21:21:09.517Z,6.13
2022-12-05T21:23:39.777Z,4.93
2022-12-05T21:26:10.059Z,5.30
2022-12-05T21:28:37.270Z,4.13
2022-12-05T21:31:25.894Z,5.45
2022-12-05T21:33:55.928Z,5.35
2022-12-05T21:36:24.580Z,4.95
2022-12-05T21:38:55.906Z,4.82
2022-12-05T21:41:24.680Z,4.32
2022-12-05T21:43:55.004Z,4.68
2022-12-05T21:46:23.340Z,4.93
2022-12-05T21:48:50.591Z,4.78
2022-12-05T21:51:18.118Z,4.90
2022-12-05T21:53:45.064Z,3.88
2022-12-05T21:56:17.584Z,5.13
2022-12-05T21:58:46.674Z,5.40
2022-12-05T22:01:27.276Z,6.65
2022-12-05T22:03:59.222Z,4.88
2022-12-05T22:06:26.362Z,3.42
2022-12-05T22:08:54.848Z,4.97
2022-12-05T22:11:23.581Z,5.22
2022-12-05T22:13:50.905Z,5.28
2022-12-05T22:16:18.731Z,3.83
2022-12-05T22:18:46.529Z,5.45
2022-12-05T22:21:15.466Z,5.22
2022-12-05T22:23:42.484Z,4.72
2022-12-05T22:26:14.945Z,5.68
2022-12-05T22:28:42.026Z,5.30
2022-12-05T22:31:12.204Z,4.40
2022-12-05T22:33:39.770Z,4.53
2022-12-05T22:36:09.869Z,5.68
2022-12-05T22:38:39.298Z,5.82
2022-12-05T22:41:09.739Z,4.13
2022-12-05T22:43:38.031Z,3.42
2022-12-05T22:46:13.691Z,5.45
2022-12-05T22:48:41.182Z,5.10
2022-12-05T22:51:09.129Z,5.78
2022-12-05T22:53:37.027Z,4.93
2022-12-05T22:56:10.205Z,4.72
2022-12-05T22:58:38.080Z,4.68
2022-12-05T23:01:18.437Z,4.40
2022-12-05T23:03:46.757Z,6.15
2022-12-05T23:06:15.818Z,4.65
2022-12-05T23:08:45.186Z,4.13
2022-12-05T23:11:12.253Z,5.38
2022-12-05T23:13:39.819Z,6.43
2022-12-05T23:16:12.260Z,5.25
2022-12-05T23:18:48.315Z,6.00
2022-12-05T23:21:27.345Z,5.70
2022-12-05T23:23:55.944Z,4.47
2022-12-05T23:26:25.515Z,4.47
2022-12-05T23:28:53.309Z,5.38
2022-12-05T23:31:20.782Z,6.15
2022-12-05T23:33:51.270Z,5.07
2022-12-05T23:38:45.885Z,4.50
2022-12-05T23:41:14.583Z,5.45
2022-12-05T23:43:42.944Z,4.93
2022-12-05T23:46:11.373Z,5.50
2022-12-05T23:51:20.264Z,5.75
2022-12-05T23:56:33.673Z,2.92
2022-12-05T23:59:02.318Z,4.32
